createdAt,value
2019-04-04T00:01:47.815Z,71.44
2019-04-04T00:04:17.326Z,70.90
2019-04-04T00:06:46.138Z,70.51
2019-04-04T00:09:14.988Z,70.17
2019-04-04T00:11:45.556Z,71.59
2019-04-04T00:14:14.438Z,72.72
2019-04-04T00:16:43.286Z,73.32
2019-04-04T00:19:12.128Z,72.81
2019-04-04T00:21:40.911Z,72.85
2019-04-04T00:24:09.820Z,73.47
2019-04-04T00:26:41.901Z,73.19
2019-04-04T00:29:11.447Z,73.74
2019-04-04T00:31:40.259Z,74.45
2019-04-04T00:34:09.067Z,75.11
2019-04-04T00:36:40.419Z,74.83
2019-04-04T00:39:09.972Z,73.90
2019-04-04T00:41:38.852Z,73.51
2019-04-04T00:44:07.586Z,72.89
2019-04-04T00:46:38.121Z,73.96
2019-04-04T00:49:06.867Z,73.01
2019-04-04T00:51:38.666Z,72.22
2019-04-04T00:54:06.421Z,72.72
2019-04-04T00:56:35.205Z,72.85
2019-04-04T00:59:03.903Z,72.67
2019-04-04T01:01:32.727Z,73.47
2019-04-04T01:04:01.521Z,72.15
2019-04-04T01:06:33.768Z,72.43
2019-04-04T01:09:04.834Z,72.40
2019-04-04T01:11:33.710Z,72.10
2019-04-04T01:14:02.565Z,72.36
2019-04-04T01:16:33.411Z,72.07
2019-04-04T01:19:01.930Z,72.61
2019-04-04T01:21:30.709Z,73.25
2019-04-04T01:23:59.597Z,73.70
2019-04-04T01:26:28.438Z,73.52
2019-04-04T01:28:57.289Z,73.63
2019-04-04T01:31:26.325Z,73.22
2019-04-04T01:33:55.177Z,73.58
2019-04-04T01:36:25.322Z,73.06
2019-04-04T01:38:54.520Z,73.05
2019-04-04T01:41:23.438Z,73.73
2019-04-04T01:44:04.334Z,73.75
2019-04-04T01:46:22.864Z,75.09
2019-04-04T01:48:51.562Z,74.88
2019-04-04T01:51:20.480Z,74.60
2019-04-04T01:53:49.329Z,74.27
2019-04-04T01:56:18.320Z,74.49
2019-04-04T01:58:48.119Z,74.51
2019-04-04T02:01:17.141Z,74.21
2019-04-04T02:03:46.045Z,73.92
2019-04-04T02:06:14.913Z,74.72
2019-04-04T02:08:43.878Z,74.40
2019-04-04T02:11:12.849Z,74.06
2019-04-04T02:13:41.903Z,74.15
2019-04-04T02:16:10.830Z,74.37
2019-04-04T02:18:40.639Z,74.14
2019-04-04T02:21:09.629Z,74.53
2019-04-04T02:23:38.579Z,74.35
2019-04-04T02:26:07.514Z,74.60
2019-04-04T02:28:37.972Z,75.46
2019-04-04T02:31:10.367Z,75.91
2019-04-04T02:33:39.322Z,76.91
2019-04-04T02:36:08.218Z,76.42
2019-04-04T02:38:37.252Z,77.04
2019-04-04T02:41:06.283Z,76.71
2019-04-04T02:43:35.267Z,77.09
2019-04-04T02:46:04.166Z,76.37
2019-04-04T02:48:33.016Z,76.00
2019-04-04T02:51:01.839Z,76.08
2019-04-04T02:53:30.761Z,76.21
2019-04-04T02:56:02.656Z,76.19
2019-04-04T02:58:30.260Z,75.98
2019-04-04T03:01:00.284Z,76.15
2019-04-04T03:03:29.574Z,76.38
2019-04-04T03:05:58.648Z,75.73
2019-04-04T03:08:27.488Z,75.52
2019-04-04T03:10:56.524Z,76.82
2019-04-04T03:13:31.159Z,77.97
2019-04-04T03:15:59.063Z,77.41
2019-04-04T03:18:27.895Z,77.96
2019-04-04T03:20:56.689Z,78.19
2019-04-04T03:23:25.512Z,77.95
2019-04-04T03:25:54.370Z,77.83
2019-04-04T03:28:23.333Z,77.23
2019-04-04T03:31:01.338Z,77.65
2019-04-04T03:33:28.976Z,77.47
2019-04-04T03:35:53.648Z,77.91
2019-04-04T03:38:22.540Z,78.11
2019-04-04T03:40:51.598Z,78.25
2019-04-04T03:43:20.480Z,78.87
2019-04-04T03:45:49.624Z,78.91
2019-04-04T03:48:18.912Z,78.67
2019-04-04T03:50:49.887Z,78.94
2019-04-04T03:53:20.204Z,79.11
2019-04-04T03:55:49.127Z,79.26
2019-04-04T03:58:18.039Z,79.61
2019-04-04T04:00:47.112Z,79.56
2019-04-04T04:03:23.631Z,79.59
2019-04-04T04:05:52.533Z,79.83
2019-04-04T04:08:22.282Z,79.73
2019-04-04T04:10:57.151Z,80.08
2019-04-04T04:13:26.188Z,80.07
2019-04-04T04:15:55.144Z,80.17
2019-04-04T04:18:24.251Z,80.54
2019-04-04T04:20:57.386Z,80.02
2019-04-04T04:23:26.491Z,80.11
2019-04-04T04:25:55.491Z,80.26
2019-04-04T04:28:24.471Z,80.52
2019-04-04T04:30:53.366Z,80.49
2019-04-04T04:33:22.366Z,80.75
2019-04-04T04:35:51.389Z,80.84
2019-04-04T04:38:25.215Z,80.86
2019-04-04T04:40:50.847Z,80.89
2019-04-04T04:43:22.844Z,80.88
2019-04-04T04:45:51.807Z,81.12
2019-04-04T04:48:20.834Z,80.78
2019-04-04T04:50:49.762Z,80.83
2019-04-04T04:53:19.650Z,81.08
2019-04-04T04:55:48.840Z,80.94
2019-04-04T04:58:17.841Z,80.97
2019-04-04T05:00:47.235Z,81.60
2019-04-04T05:03:18.977Z,81.21
2019-04-04T05:05:52.286Z,81.45
2019-04-04T05:08:23.054Z,81.47
2019-04-04T05:10:54.091Z,81.68
2019-04-04T05:13:24.604Z,81.41
2019-04-04T05:15:53.329Z,81.46
2019-04-04T05:18:22.277Z,81.39
2019-04-04T05:20:51.181Z,81.60
2019-04-04T05:23:20.134Z,81.62
2019-04-04T05:25:53.654Z,81.15
2019-04-04T05:28:24.313Z,81.57
2019-04-04T05:30:55.741Z,81.84
2019-04-04T05:33:26.933Z,81.94
2019-04-04T05:35:55.278Z,81.44
2019-04-04T05:38:24.130Z,81.24
2019-04-04T05:40:55.422Z,80.95
2019-04-04T05:43:25.200Z,80.94
2019-04-04T05:45:55.689Z,80.62
2019-04-04T05:48:24.722Z,79.99
2019-04-04T05:50:55.516Z,79.77
2019-04-04T05:53:24.726Z,79.73
2019-04-04T05:55:53.617Z,80.26
2019-04-04T05:58:22.768Z,80.21
2019-04-04T06:00:51.950Z,80.32
2019-04-04T06:03:20.858Z,80.00
2019-04-04T06:05:49.775Z,79.95
2019-04-04T06:08:18.633Z,79.14
2019-04-04T06:10:47.998Z,79.22
2019-04-04T06:13:18.308Z,79.20
2019-04-04T06:15:47.070Z,79.40
2019-04-04T06:18:15.912Z,79.66
2019-04-04T06:20:44.766Z,78.53
2019-04-04T06:23:13.624Z,77.84
2019-04-04T06:25:43.976Z,76.97
2019-04-04T06:28:12.960Z,76.95
2019-04-04T06:30:43.441Z,76.39
2019-04-04T06:33:12.383Z,77.61
2019-04-04T06:35:42.916Z,77.69
2019-04-04T06:38:12.127Z,76.94
2019-04-04T06:40:41.233Z,76.64
2019-04-04T06:43:11.526Z,76.77
2019-04-04T06:45:40.679Z,76.67
2019-04-04T06:48:09.703Z,76.07
2019-04-04T06:50:40.084Z,74.66
2019-04-04T06:53:09.211Z,72.65
2019-04-04T06:55:40.060Z,69.54
2019-04-04T06:58:09.670Z,66.97
2019-04-04T07:00:41.750Z,66.99
2019-04-04T07:03:09.583Z,65.84
2019-04-04T07:05:38.993Z,65.63
2019-04-04T07:08:08.020Z,63.09
2019-04-04T07:10:37.070Z,63.00
2019-04-04T07:13:21.031Z,60.27
2019-04-04T07:15:46.644Z,60.50
2019-04-04T07:18:10.142Z,59.07
2019-04-04T07:20:40.030Z,58.41
2019-04-04T07:23:08.912Z,56.89
2019-04-04T07:25:39.472Z,54.93
2019-04-04T07:28:08.399Z,57.95
2019-04-04T07:30:37.208Z,57.44
2019-04-04T07:33:06.092Z,58.04
2019-04-04T07:35:34.950Z,59.56
2019-04-04T07:38:03.976Z,59.34
2019-04-04T07:40:36.304Z,60.04
2019-04-04T07:43:03.607Z,59.75
2019-04-04T07:45:33.761Z,59.80
2019-04-04T07:48:02.776Z,58.67
2019-04-04T07:50:31.655Z,57.83
2019-04-04T07:53:04.818Z,58.08
2019-04-04T07:55:34.107Z,55.75
2019-04-04T07:58:03.041Z,55.97
2019-04-04T08:00:31.956Z,55.01
2019-04-04T08:03:00.850Z,55.17
2019-04-04T08:05:29.795Z,53.35
2019-04-04T08:07:58.794Z,52.99
2019-04-04T08:10:27.750Z,52.47
2019-04-04T08:12:56.572Z,52.73
2019-04-04T08:15:25.482Z,50.87
2019-04-04T08:17:54.487Z,50.63
2019-04-04T08:20:24.616Z,49.25
2019-04-04T08:22:54.486Z,50.26
2019-04-04T08:25:23.326Z,48.14
2019-04-04T08:27:52.197Z,46.87
2019-04-04T08:30:21.107Z,48.13
2019-04-04T08:32:50.025Z,45.54
2019-04-04T08:35:18.835Z,45.30
2019-04-04T08:37:47.762Z,47.02
2019-04-04T08:40:16.975Z,45.29
2019-04-04T08:42:45.952Z,44.66
2019-04-04T08:45:14.961Z,44.78
2019-04-04T08:47:43.882Z,46.11
2019-04-04T08:50:12.726Z,46.22
2019-04-04T08:52:41.690Z,45.79
2019-04-04T08:55:11.064Z,46.71
2019-04-04T08:57:40.054Z,48.17
2019-04-04T09:00:09.112Z,45.88
2019-04-04T09:02:37.985Z,45.82
2019-04-04T09:05:12.172Z,47.51
2019-04-04T09:07:38.190Z,44.03
2019-04-04T09:10:07.440Z,44.46
2019-04-04T09:12:36.268Z,44.38
2019-04-04T09:15:07.085Z,42.64
2019-04-04T09:17:35.922Z,40.25
2019-04-04T09:20:05.873Z,39.83
2019-04-04T09:22:34.809Z,39.49
2019-04-04T09:25:04.156Z,38.97
2019-04-04T09:27:33.065Z,37.79
2019-04-04T09:30:02.983Z,38.13
2019-04-04T09:32:31.751Z,39.17
2019-04-04T09:35:00.568Z,38.26
2019-04-04T09:37:31.965Z,37.95
2019-04-04T09:40:02.976Z,36.23
2019-04-04T09:42:32.803Z,37.64
2019-04-04T09:45:01.758Z,36.10
2019-04-04T09:47:30.597Z,35.81
2019-04-04T09:49:59.527Z,37.22
2019-04-04T09:52:28.443Z,35.41
2019-04-04T09:54:57.255Z,33.91
2019-04-04T09:57:26.172Z,34.00
2019-04-04T09:59:55.178Z,35.10
2019-04-04T10:02:24.051Z,36.55
2019-04-04T10:04:53.001Z,32.75
2019-04-04T10:07:25.044Z,31.89
2019-04-04T10:09:52.604Z,30.93
2019-04-04T10:12:21.575Z,33.10
2019-04-04T10:14:50.507Z,35.11
2019-04-04T10:17:19.454Z,31.31
2019-04-04T10:19:48.321Z,33.44
2019-04-04T10:22:17.235Z,31.99
2019-04-04T10:24:46.112Z,31.39
2019-04-04T10:27:15.148Z,30.45
2019-04-04T10:29:44.081Z,31.17
2019-04-04T10:32:13.057Z,30.06
2019-04-04T10:34:41.943Z,31.08
2019-04-04T10:37:13.279Z,32.03
2019-04-04T10:39:42.154Z,30.68
2019-04-04T10:42:11.247Z,33.46
2019-04-04T10:44:42.288Z,31.74
2019-04-04T10:47:11.161Z,31.75
2019-04-04T10:49:41.074Z,32.43
2019-04-04T10:52:11.069Z,33.06
2019-04-04T10:54:39.959Z,30.56
2019-04-04T10:57:08.846Z,29.77
2019-04-04T10:59:37.673Z,29.88
2019-04-04T11:02:06.547Z,30.36
2019-04-04T11:04:35.413Z,32.42
2019-04-04T11:07:04.343Z,30.64
2019-04-04T11:09:41.955Z,29.62
2019-04-04T11:12:03.931Z,30.21
2019-04-04T11:14:32.776Z,31.52
2019-04-04T11:17:01.671Z,31.02
2019-04-04T11:19:31.696Z,30.44
2019-04-04T11:22:00.654Z,31.26
2019-04-04T11:24:29.650Z,30.95
2019-04-04T11:26:58.526Z,30.27
2019-04-04T11:29:27.458Z,31.09
2019-04-04T11:31:56.336Z,31.78
2019-04-04T11:34:25.251Z,30.02
2019-04-04T11:36:54.090Z,29.27
2019-04-04T11:39:23.036Z,28.94
2019-04-04T11:41:52.068Z,30.31
2019-04-04T11:44:20.909Z,30.81
2019-04-04T11:46:50.550Z,30.97
2019-04-04T11:49:19.596Z,31.27
2019-04-04T11:51:48.668Z,29.87
2019-04-04T11:54:17.658Z,30.91
2019-04-04T11:56:46.536Z,29.46
2019-04-04T11:59:15.969Z,29.55
2019-04-04T12:01:45.506Z,30.44
2019-04-04T12:04:14.412Z,30.74
2019-04-04T12:06:43.357Z,29.73
2019-04-04T12:09:12.353Z,30.35
2019-04-04T12:11:41.241Z,29.93
2019-04-04T12:14:13.158Z,31.66
2019-04-04T12:16:42.238Z,32.41
2019-04-04T12:19:11.368Z,32.52
2019-04-04T12:21:40.468Z,33.36
2019-04-04T12:24:09.442Z,34.07
2019-04-04T12:26:38.655Z,33.67
2019-04-04T12:29:07.729Z,34.47
2019-04-04T12:31:36.673Z,34.58
2019-04-04T12:34:05.638Z,34.67
2019-04-04T12:36:34.854Z,37.20
2019-04-04T12:39:04.249Z,34.91
2019-04-04T12:41:33.147Z,36.01
2019-04-04T12:44:02.024Z,36.27
2019-04-04T12:46:30.948Z,37.16
2019-04-04T12:48:59.793Z,37.30
2019-04-04T12:51:28.580Z,36.19
2019-04-04T12:53:57.490Z,35.90
2019-04-04T12:56:26.380Z,36.17
2019-04-04T12:58:55.201Z,36.52
2019-04-04T13:01:24.114Z,36.32
2019-04-04T13:03:53.227Z,35.05
2019-04-04T13:06:22.452Z,36.19
2019-04-04T13:08:51.391Z,39.56
2019-04-04T13:11:20.338Z,34.61
2019-04-04T13:13:49.293Z,36.07
2019-04-04T13:16:18.182Z,36.38
2019-04-04T13:18:47.026Z,38.44
2019-04-04T13:21:16.063Z,35.71
2019-04-04T13:23:45.024Z,33.96
2019-04-04T13:26:14.008Z,35.40
2019-04-04T13:28:43.002Z,36.58
2019-04-04T13:31:12.011Z,35.84
2019-04-04T13:33:41.179Z,36.90
2019-04-04T13:36:10.285Z,35.74
2019-04-04T13:38:42.111Z,39.60
2019-04-04T13:41:21.331Z,36.39
2019-04-04T13:43:41.753Z,37.68
2019-04-04T13:46:11.189Z,37.50
2019-04-04T13:48:43.210Z,37.89
2019-04-04T13:51:11.025Z,35.39
2019-04-04T13:53:41.626Z,37.51
2019-04-04T13:56:10.549Z,35.75
2019-04-04T13:58:42.034Z,35.43
2019-04-04T14:01:13.349Z,34.37
2019-04-04T14:03:44.091Z,36.66
2019-04-04T14:06:18.268Z,33.33
2019-04-04T14:08:55.287Z,34.43
2019-04-04T14:11:24.384Z,37.31
2019-04-04T14:13:53.313Z,34.71
2019-04-04T14:16:22.378Z,35.90
2019-04-04T14:18:51.438Z,35.29
2019-04-04T14:21:20.580Z,35.98
2019-04-04T14:23:52.038Z,37.41
2019-04-04T14:26:20.552Z,36.70
2019-04-04T14:28:50.038Z,36.12
2019-04-04T14:31:19.076Z,36.73
2019-04-04T14:33:48.253Z,36.98
2019-04-04T14:36:17.445Z,36.54
2019-04-04T14:38:46.677Z,37.01
2019-04-04T14:41:15.890Z,36.96
2019-04-04T14:43:45.032Z,37.08
2019-04-04T14:46:16.973Z,37.71
2019-04-04T14:48:46.095Z,38.27
2019-04-04T14:51:22.871Z,39.44
2019-04-04T14:53:51.944Z,40.54
2019-04-04T14:56:21.089Z,38.45
2019-04-04T14:58:50.179Z,38.44
2019-04-04T15:01:19.222Z,39.54
2019-04-04T15:03:48.382Z,40.36
2019-04-04T15:06:42.051Z,38.97
2019-04-04T15:09:11.551Z,38.61
2019-04-04T15:11:40.477Z,37.74
2019-04-04T15:14:09.424Z,38.16
2019-04-04T15:16:38.343Z,37.79
2019-04-04T15:19:07.409Z,37.29
2019-04-04T15:21:36.469Z,39.68
2019-04-04T15:24:06.326Z,38.37
2019-04-04T15:26:35.286Z,38.57
2019-04-04T15:29:04.312Z,39.86
2019-04-04T15:31:33.303Z,41.99
2019-04-04T15:34:02.226Z,40.22
2019-04-04T15:36:31.150Z,41.64
2019-04-04T15:39:00.250Z,41.18
2019-04-04T15:41:36.818Z,41.43
2019-04-04T15:43:59.704Z,42.40
2019-04-04T15:46:28.634Z,43.02
2019-04-04T15:48:57.593Z,43.88
2019-04-04T15:51:26.659Z,45.50
2019-04-04T15:53:55.586Z,46.52
2019-04-04T15:56:24.567Z,47.55
2019-04-04T15:58:53.385Z,49.70
2019-04-04T16:01:22.377Z,48.76
2019-04-04T16:03:51.476Z,49.74
2019-04-04T16:06:20.412Z,50.72
2019-04-04T16:08:49.345Z,51.37
2019-04-04T16:11:18.428Z,51.71
2019-04-04T16:13:47.535Z,52.19
2019-04-04T16:16:16.577Z,53.00
2019-04-04T16:18:45.572Z,54.33
2019-04-04T16:21:14.598Z,53.79
2019-04-04T16:23:43.675Z,54.42
2019-04-04T16:26:13.679Z,55.99
2019-04-04T16:28:42.840Z,54.91
2019-04-04T16:31:12.105Z,55.10
2019-04-04T16:33:41.210Z,55.61
2019-04-04T16:36:10.184Z,56.38
2019-04-04T16:38:39.297Z,56.22
2019-04-04T16:41:08.278Z,56.14
2019-04-04T16:43:37.303Z,56.84
2019-04-04T16:46:06.673Z,56.38
2019-04-04T16:48:35.647Z,57.46
2019-04-04T16:51:04.569Z,57.14
2019-04-04T16:53:33.701Z,57.32
2019-04-04T16:56:03.848Z,57.08
2019-04-04T16:58:33.418Z,57.71
2019-04-04T17:01:02.372Z,57.18
2019-04-04T17:03:34.157Z,57.14
2019-04-04T17:06:02.282Z,57.06
2019-04-04T17:08:31.192Z,57.64
2019-04-04T17:11:00.118Z,57.75
2019-04-04T17:13:28.950Z,59.29
2019-04-04T17:15:57.860Z,58.94
2019-04-04T17:18:26.707Z,57.75
2019-04-04T17:20:55.576Z,58.09
2019-04-04T17:23:24.495Z,58.12
2019-04-04T17:25:53.298Z,58.38
2019-04-04T17:28:22.541Z,58.62
2019-04-04T17:30:51.916Z,58.88
2019-04-04T17:33:20.926Z,58.37
2019-04-04T17:35:49.740Z,59.08
2019-04-04T17:38:18.604Z,59.14
2019-04-04T17:40:47.550Z,59.35
2019-04-04T17:43:16.538Z,58.50
2019-04-04T17:45:45.418Z,58.70
2019-04-04T17:48:14.268Z,58.86
2019-04-04T17:50:43.155Z,59.64
2019-04-04T17:53:12.247Z,59.02
2019-04-04T17:55:41.303Z,58.55
2019-04-04T17:58:10.586Z,59.00
2019-04-04T18:00:39.800Z,59.37
2019-04-04T18:03:08.761Z,58.84
2019-04-04T18:05:37.611Z,58.66
2019-04-04T18:08:06.578Z,59.00
2019-04-04T18:10:36.782Z,58.93
2019-04-04T18:13:07.383Z,59.27
2019-04-04T18:15:38.244Z,59.20
2019-04-04T18:18:07.264Z,59.20
2019-04-04T18:20:36.337Z,59.64
2019-04-04T18:23:05.491Z,59.02
2019-04-04T18:25:35.502Z,58.95
2019-04-04T18:28:04.670Z,59.55
2019-04-04T18:30:34.699Z,59.49
2019-04-04T18:33:03.780Z,59.91
2019-04-04T18:35:32.672Z,59.61
2019-04-04T18:38:01.650Z,60.71
2019-04-04T18:40:30.828Z,61.23
2019-04-04T18:42:59.638Z,60.70
2019-04-04T18:45:28.593Z,60.84
2019-04-04T18:47:58.543Z,62.11
2019-04-04T18:50:27.730Z,62.03
2019-04-04T18:52:56.940Z,61.82
2019-04-04T18:55:26.931Z,61.13
2019-04-04T18:57:58.806Z,61.16
2019-04-04T19:00:27.845Z,60.91
2019-04-04T19:02:57.101Z,60.81
2019-04-04T19:05:26.374Z,61.93
2019-04-04T19:07:55.421Z,61.31
2019-04-04T19:10:24.414Z,61.88
2019-04-04T19:13:04.669Z,61.71
2019-04-04T19:15:24.537Z,62.00
2019-04-04T19:17:53.475Z,62.11
2019-04-04T19:20:22.331Z,61.62
2019-04-04T19:22:52.238Z,62.47
2019-04-04T19:25:21.157Z,63.15
2019-04-04T19:27:50.177Z,62.66
2019-04-04T19:30:19.479Z,61.89
2019-04-04T19:32:48.592Z,62.17
2019-04-04T19:35:18.568Z,62.97
2019-04-04T19:37:59.578Z,62.19
2019-04-04T19:40:20.553Z,61.76
2019-04-04T19:42:49.545Z,61.91
2019-04-04T19:45:21.159Z,61.88
2019-04-04T19:47:49.217Z,62.71
2019-04-04T19:50:18.129Z,63.59
2019-04-04T19:52:47.188Z,63.04
2019-04-04T19:55:17.226Z,63.33
2019-04-04T19:57:46.296Z,63.41
2019-04-04T20:00:16.145Z,62.82
2019-04-04T20:02:45.138Z,63.40
2019-04-04T20:05:14.235Z,64.35
2019-04-04T20:07:44.808Z,63.67
2019-04-04T20:10:13.831Z,63.25
2019-04-04T20:12:42.756Z,63.18
2019-04-04T20:15:11.893Z,63.60
2019-04-04T20:17:40.846Z,64.43
2019-04-04T20:20:10.995Z,64.23
2019-04-04T20:22:40.015Z,64.62
2019-04-04T20:25:09.086Z,64.21
2019-04-04T20:27:39.186Z,63.44
2019-04-04T20:30:10.938Z,64.06
2019-04-04T20:32:39.987Z,64.33
2019-04-04T20:35:10.188Z,63.81
2019-04-04T20:37:39.082Z,63.65
2019-04-04T20:40:08.050Z,65.11
2019-04-04T20:42:39.128Z,64.69
2019-04-04T20:45:09.542Z,64.94
2019-04-04T20:47:38.496Z,63.93
2019-04-04T20:50:08.049Z,65.02
2019-04-04T20:52:37.042Z,64.64
2019-04-04T20:55:07.056Z,63.45
2019-04-04T20:57:36.031Z,63.74
2019-04-04T21:00:06.494Z,64.27
2019-04-04T21:02:35.533Z,63.58
2019-04-04T21:05:05.608Z,63.56
2019-04-04T21:07:34.608Z,63.72
2019-04-04T21:10:03.952Z,64.13
2019-04-04T21:12:33.936Z,63.86
2019-04-04T21:15:02.900Z,63.42
2019-04-04T21:17:31.792Z,64.74
2019-04-04T21:20:03.192Z,63.48
2019-04-04T21:22:32.082Z,63.11
2019-04-04T21:25:00.993Z,63.57
2019-04-04T21:27:29.927Z,63.79
2019-04-04T21:29:58.860Z,64.92
2019-04-04T21:32:27.739Z,64.05
2019-04-04T21:35:02.697Z,64.44
2019-04-04T21:37:31.617Z,63.92
2019-04-04T21:40:00.508Z,64.90
2019-04-04T21:42:32.783Z,64.43
2019-04-04T21:45:01.647Z,64.13
2019-04-04T21:47:30.542Z,63.84
2019-04-04T21:50:03.411Z,63.88
2019-04-04T21:52:32.405Z,64.54
2019-04-04T21:55:01.209Z,64.61
2019-04-04T21:57:31.226Z,64.87
2019-04-04T22:00:00.082Z,65.17
2019-04-04T22:02:29.055Z,65.54
2019-04-04T22:04:57.816Z,64.89
2019-04-04T22:07:26.797Z,64.55
2019-04-04T22:09:55.695Z,65.66
2019-04-04T22:12:29.271Z,65.08
2019-04-04T22:15:01.192Z,64.33
2019-04-04T22:17:30.131Z,64.60
2019-04-04T22:20:00.062Z,64.44
2019-04-04T22:22:29.056Z,65.25
2019-04-04T22:24:57.981Z,64.83
2019-04-04T22:27:26.835Z,65.66
2019-04-04T22:29:55.960Z,66.00
2019-04-04T22:32:24.846Z,66.82
2019-04-04T22:34:53.770Z,65.74
2019-04-04T22:37:22.624Z,66.29
2019-04-04T22:39:51.575Z,66.30
2019-04-04T22:42:20.554Z,65.84
2019-04-04T22:44:49.501Z,65.67
2019-04-04T22:47:18.353Z,65.47
2019-04-04T22:49:47.268Z,65.66
2019-04-04T22:52:18.997Z,65.81
2019-04-04T22:54:49.689Z,65.92
2019-04-04T22:57:18.532Z,66.58
2019-04-04T22:59:47.636Z,65.85
2019-04-04T23:02:16.624Z,66.01
2019-04-04T23:04:45.619Z,66.03
2019-04-04T23:07:14.551Z,65.84
2019-04-04T23:09:43.470Z,66.60
2019-04-04T23:12:12.462Z,66.49
2019-04-04T23:14:47.885Z,66.05
2019-04-04T23:17:14.670Z,66.39
2019-04-04T23:19:43.531Z,66.64
2019-04-04T23:22:12.485Z,66.81
2019-04-04T23:24:41.446Z,67.23
2019-04-04T23:27:10.273Z,67.15
2019-04-04T23:29:39.133Z,67.36
2019-04-04T23:32:08.087Z,67.72
2019-04-04T23:34:36.972Z,67.28
2019-04-04T23:37:05.972Z,67.90
2019-04-04T23:39:34.922Z,67.99
2019-04-04T23:42:03.856Z,67.80
2019-04-04T23:44:32.621Z,68.85
2019-04-04T23:47:01.640Z,67.81
2019-04-04T23:49:33.097Z,68.70
2019-04-04T23:52:02.987Z,68.29
2019-04-04T23:54:32.507Z,68.40
2019-04-04T23:57:01.563Z,68.27
2019-04-04T23:59:30.471Z,68.31
